sensor_id;sensor_type;location;lat;lon;timestamp;pressure;altitude;pressure_sealevel;temperature
68440;BMP180;55421;51.600;5.718;2023-04-24T00:01:27;154703.20;;;10.40
68440;BMP180;55421;51.600;5.718;2023-04-24T00:03:56;156311.00;;;10.40
68440;BMP180;55421;51.600;5.718;2023-04-24T00:06:26;157883.20;;;10.40
68440;BMP180;55421;51.600;5.718;2023-04-24T00:09:00;157830.00;;;10.40
68440;BMP180;55421;51.600;5.718;2023-04-24T00:11:27;158701.20;;;10.40
68440;BMP180;55421;51.600;5.718;2023-04-24T00:13:54;159658.00;;;10.40
68440;BMP180;55421;51.600;5.718;2023-04-24T00:16:22;160643.20;;;10.42
68440;BMP180;55421;51.600;5.718;2023-04-24T00:18:48;160935.41;;;10.50
68440;BMP180;55421;51.600;5.718;2023-04-24T00:21:15;162245.41;;;10.50
68440;BMP180;55421;51.600;5.718;2023-04-24T00:23:44;162611.80;;;10.50
68440;BMP180;55421;51.600;5.718;2023-04-24T00:26:10;162879.20;;;10.50
68440;BMP180;55421;51.600;5.718;2023-04-24T00:28:37;163140.00;;;10.50
68440;BMP180;55421;51.600;5.718;2023-04-24T00:31:03;162885.20;;;10.50
68440;BMP180;55421;51.600;5.718;2023-04-24T00:33:30;163240.00;;;10.50
68440;BMP180;55421;51.600;5.718;2023-04-24T00:35:56;163485.59;;;10.40
68440;BMP180;55421;51.600;5.718;2023-04-24T00:38:23;163493.00;;;10.40
68440;BMP180;55421;51.600;5.718;2023-04-24T00:40:49;163155.00;;;10.40
68440;BMP180;55421;51.600;5.718;2023-04-24T00:43:17;163610.00;;;10.40
68440;BMP180;55421;51.600;5.718;2023-04-24T00:45:43;163825.41;;;10.40
68440;BMP180;55421;51.600;5.718;2023-04-24T00:48:11;163874.80;;;10.40
68440;BMP180;55421;51.600;5.718;2023-04-24T00:50:39;163892.41;;;10.40
68440;BMP180;55421;51.600;5.718;2023-04-24T00:53:05;164066.59;;;10.40
68440;BMP180;55421;51.600;5.718;2023-04-24T00:55:32;164139.20;;;10.30
68440;BMP180;55421;51.600;5.718;2023-04-24T00:57:59;164126.00;;;10.30
68440;BMP180;55421;51.600;5.718;2023-04-24T01:00:26;164042.80;;;10.30
68440;BMP180;55421;51.600;5.718;2023-04-24T01:02:53;164326.00;;;10.24
68440;BMP180;55421;51.600;5.718;2023-04-24T01:05:20;164399.41;;;10.20
68440;BMP180;55421;51.600;5.718;2023-04-24T01:07:47;164456.59;;;10.20
68440;BMP180;55421;51.600;5.718;2023-04-24T01:10:15;164518.59;;;10.20
68440;BMP180;55421;51.600;5.718;2023-04-24T01:12:43;164607.20;;;10.20
68440;BMP180;55421;51.600;5.718;2023-04-24T01:15:10;164612.00;;;10.18
68440;BMP180;55421;51.600;5.718;2023-04-24T01:17:36;164612.00;;;10.10
68440;BMP180;55421;51.600;5.718;2023-04-24T01:20:05;164606.80;;;10.10
68440;BMP180;55421;51.600;5.718;2023-04-24T01:22:34;164596.00;;;10.10
68440;BMP180;55421;51.600;5.718;2023-04-24T01:25:02;164592.41;;;10.10
68440;BMP180;55421;51.600;5.718;2023-04-24T01:27:28;164588.80;;;10.10
68440;BMP180;55421;51.600;5.718;2023-04-24T01:29:55;164584.80;;;10.10
68440;BMP180;55421;51.600;5.718;2023-04-24T01:32:22;164588.41;;;10.10
68440;BMP180;55421;51.600;5.718;2023-04-24T01:34:49;164580.80;;;10.10
68440;BMP180;55421;51.600;5.718;2023-04-24T01:37:16;164575.20;;;10.10
68440;BMP180;55421;51.600;5.718;2023-04-24T01:39:43;164564.80;;;10.00
68440;BMP180;55421;51.600;5.718;2023-04-24T01:42:12;164563.59;;;10.00
68440;BMP180;55421;51.600;5.718;2023-04-24T01:44:38;164553.59;;;10.00
68440;BMP180;55421;51.600;5.718;2023-04-24T01:47:06;164544.00;;;10.00
68440;BMP180;55421;51.600;5.718;2023-04-24T01:49:33;164530.00;;;10.00
68440;BMP180;55421;51.600;5.718;2023-04-24T01:52:00;164527.59;;;9.98
68440;BMP180;55421;51.600;5.718;2023-04-24T01:54:27;164512.41;;;9.90
68440;BMP180;55421;51.600;5.718;2023-04-24T01:56:53;164513.80;;;9.90
68440;BMP180;55421;51.600;5.718;2023-04-24T01:59:20;164507.59;;;9.90
68440;BMP180;55421;51.600;5.718;2023-04-24T02:01:48;164493.41;;;9.90
68440;BMP180;55421;51.600;5.718;2023-04-24T02:04:14;164471.41;;;9.80
68440;BMP180;55421;51.600;5.718;2023-04-24T02:06:41;164464.59;;;9.80
68440;BMP180;55421;51.600;5.718;2023-04-24T02:09:07;164465.80;;;9.80
68440;BMP180;55421;51.600;5.718;2023-04-24T02:11:34;164456.20;;;9.80
68440;BMP180;55421;51.600;5.718;2023-04-24T02:14:00;164457.41;;;9.80
68440;BMP180;55421;51.600;5.718;2023-04-24T02:16:28;164451.80;;;9.80
68440;BMP180;55421;51.600;5.718;2023-04-24T02:18:58;164453.80;;;9.80
68440;BMP180;55421;51.600;5.718;2023-04-24T02:21:25;164447.00;;;9.80
68440;BMP180;55421;51.600;5.718;2023-04-24T02:23:51;164444.59;;;9.76
68440;BMP180;55421;51.600;5.718;2023-04-24T02:26:18;164437.80;;;9.72
68440;BMP180;55421;51.600;5.718;2023-04-24T02:28:45;164445.80;;;9.80
68440;BMP180;55421;51.600;5.718;2023-04-24T02:31:11;164457.41;;;9.80
68440;BMP180;55421;51.600;5.718;2023-04-24T02:33:37;164451.80;;;9.80
68440;BMP180;55421;51.600;5.718;2023-04-24T02:36:04;164441.41;;;9.76
68440;BMP180;55421;51.600;5.718;2023-04-24T02:38:31;164430.59;;;9.70
68440;BMP180;55421;51.600;5.718;2023-04-24T02:40:57;164418.59;;;9.70
68440;BMP180;55421;51.600;5.718;2023-04-24T02:43:24;164401.41;;;9.70
68440;BMP180;55421;51.600;5.718;2023-04-24T02:45:50;164384.59;;;9.60
68440;BMP180;55421;51.600;5.718;2023-04-24T02:48:17;164375.80;;;9.60
68440;BMP180;55421;51.600;5.718;2023-04-24T02:50:44;164362.20;;;9.60
68440;BMP180;55421;51.600;5.718;2023-04-24T02:53:11;164347.20;;;9.50
68440;BMP180;55421;51.600;5.718;2023-04-24T02:55:37;164336.80;;;9.50
68440;BMP180;55421;51.600;5.718;2023-04-24T02:58:04;164330.80;;;9.50
68440;BMP180;55421;51.600;5.718;2023-04-24T03:00:32;164323.20;;;9.50
68440;BMP180;55421;51.600;5.718;2023-04-24T03:02:58;164323.20;;;9.50
68440;BMP180;55421;51.600;5.718;2023-04-24T03:05:25;164324.41;;;9.50
68440;BMP180;55421;51.600;5.718;2023-04-24T03:07:51;164316.00;;;9.44
68440;BMP180;55421;51.600;5.718;2023-04-24T03:10:19;164302.41;;;9.40
68440;BMP180;55421;51.600;5.718;2023-04-24T03:12:45;164299.20;;;9.40
68440;BMP180;55421;51.600;5.718;2023-04-24T03:15:12;164305.20;;;9.40
68440;BMP180;55421;51.600;5.718;2023-04-24T03:17:38;164305.20;;;9.40
68440;BMP180;55421;51.600;5.718;2023-04-24T03:20:06;164305.59;;;9.40
68440;BMP180;55421;51.600;5.718;2023-04-24T03:22:34;164311.20;;;9.42
68440;BMP180;55421;51.600;5.718;2023-04-24T03:25:01;164310.00;;;9.42
68440;BMP180;55421;51.600;5.718;2023-04-24T03:27:28;164311.20;;;9.48
68440;BMP180;55421;51.600;5.718;2023-04-24T03:29:54;164311.20;;;9.44
68440;BMP180;55421;51.600;5.718;2023-04-24T03:32:24;164316.00;;;9.40
68440;BMP180;55421;51.600;5.718;2023-04-24T03:34:51;164306.41;;;9.42
68440;BMP180;55421;51.600;5.718;2023-04-24T03:37:20;164313.59;;;9.44
68440;BMP180;55421;51.600;5.718;2023-04-24T03:39:46;164322.00;;;9.50
68440;BMP180;55421;51.600;5.718;2023-04-24T03:42:13;164324.00;;;9.50
68440;BMP180;55421;51.600;5.718;2023-04-24T03:44:39;164319.59;;;9.50
68440;BMP180;55421;51.600;5.718;2023-04-24T03:47:05;164307.59;;;9.40
68440;BMP180;55421;51.600;5.718;2023-04-24T03:49:32;164306.80;;;9.40
68440;BMP180;55421;51.600;5.718;2023-04-24T03:51:58;164297.59;;;9.40
68440;BMP180;55421;51.600;5.718;2023-04-24T03:54:25;164305.20;;;9.40
68440;BMP180;55421;51.600;5.718;2023-04-24T03:56:51;164306.41;;;9.40
68440;BMP180;55421;51.600;5.718;2023-04-24T03:59:18;164306.80;;;9.40
68440;BMP180;55421;51.600;5.718;2023-04-24T04:01:44;164312.41;;;9.40
68440;BMP180;55421;51.600;5.718;2023-04-24T04:04:11;164307.59;;;9.40
68440;BMP180;55421;51.600;5.718;2023-04-24T04:06:38;164303.59;;;9.40
68440;BMP180;55421;51.600;5.718;2023-04-24T04:09:04;164295.59;;;9.40
68440;BMP180;55421;51.600;5.718;2023-04-24T04:11:31;164288.80;;;9.40
68440;BMP180;55421;51.600;5.718;2023-04-24T04:13:57;164278.00;;;9.40
68440;BMP180;55421;51.600;5.718;2023-04-24T04:16:24;164271.20;;;9.40
68440;BMP180;55421;51.600;5.718;2023-04-24T04:18:50;164263.00;;;9.30
68440;BMP180;55421;51.600;5.718;2023-04-24T04:21:17;164255.80;;;9.30
68440;BMP180;55421;51.600;5.718;2023-04-24T04:23:43;164255.80;;;9.30
68440;BMP180;55421;51.600;5.718;2023-04-24T04:26:11;164257.00;;;9.30
68440;BMP180;55421;51.600;5.718;2023-04-24T04:28:37;164266.00;;;9.32
68440;BMP180;55421;51.600;5.718;2023-04-24T04:31:06;164264.00;;;9.30
68440;BMP180;55421;51.600;5.718;2023-04-24T04:33:34;164257.00;;;9.30
68440;BMP180;55421;51.600;5.718;2023-04-24T04:36:02;164251.41;;;9.30
68440;BMP180;55421;51.600;5.718;2023-04-24T04:38:30;164251.41;;;9.30
68440;BMP180;55421;51.600;5.718;2023-04-24T04:40:56;164245.41;;;9.30
68440;BMP180;55421;51.600;5.718;2023-04-24T04:43:24;164239.41;;;9.30
68440;BMP180;55421;51.600;5.718;2023-04-24T04:45:51;164241.80;;;9.30
68440;BMP180;55421;51.600;5.718;2023-04-24T04:48:18;164245.41;;;9.30
68440;BMP180;55421;51.600;5.718;2023-04-24T04:50:44;164250.20;;;9.30
68440;BMP180;55421;51.600;5.718;2023-04-24T04:53:11;164250.20;;;9.30
68440;BMP180;55421;51.600;5.718;2023-04-24T04:55:38;164250.20;;;9.30
68440;BMP180;55421;51.600;5.718;2023-04-24T04:58:05;164241.80;;;9.30
68440;BMP180;55421;51.600;5.718;2023-04-24T05:00:32;164235.80;;;9.30
68440;BMP180;55421;51.600;5.718;2023-04-24T05:03:02;164222.59;;;9.22
68440;BMP180;55421;51.600;5.718;2023-04-24T05:05:29;164215.80;;;9.20
68440;BMP180;55421;51.600;5.718;2023-04-24T05:07:55;164203.80;;;9.20
68440;BMP180;55421;51.600;5.718;2023-04-24T05:10:22;164213.80;;;9.20
68440;BMP180;55421;51.600;5.718;2023-04-24T05:12:48;164215.00;;;9.20
68440;BMP180;55421;51.600;5.718;2023-04-24T05:15:15;164217.00;;;9.20
68440;BMP180;55421;51.600;5.718;2023-04-24T05:17:42;164223.41;;;9.20
68440;BMP180;55421;51.600;5.718;2023-04-24T05:20:08;164234.59;;;9.30
68440;BMP180;55421;51.600;5.718;2023-04-24T05:22:35;164240.59;;;9.30
68440;BMP180;55421;51.600;5.718;2023-04-24T05:25:02;164243.00;;;9.30
68440;BMP180;55421;51.600;5.718;2023-04-24T05:27:29;164249.00;;;9.30
68440;BMP180;55421;51.600;5.718;2023-04-24T05:29:55;164255.00;;;9.30
68440;BMP180;55421;51.600;5.718;2023-04-24T05:32:22;164262.00;;;9.30
68440;BMP180;55421;51.600;5.718;2023-04-24T05:34:48;164260.00;;;9.30
68440;BMP180;55421;51.600;5.718;2023-04-24T05:37:14;164267.00;;;9.30
68440;BMP180;55421;51.600;5.718;2023-04-24T05:39:41;164269.20;;;9.32
68440;BMP180;55421;51.600;5.718;2023-04-24T05:42:07;164271.20;;;9.34
68440;BMP180;55421;51.600;5.718;2023-04-24T05:44:34;164277.59;;;9.40
68440;BMP180;55421;51.600;5.718;2023-04-24T05:47:00;164270.20;;;9.36
68440;BMP180;55421;51.600;5.718;2023-04-24T05:49:27;164252.59;;;9.30
68440;BMP180;55421;51.600;5.718;2023-04-24T05:51:54;164240.59;;;9.30
68440;BMP180;55421;51.600;5.718;2023-04-24T05:54:20;164240.59;;;9.30
68440;BMP180;55421;51.600;5.718;2023-04-24T05:56:47;164241.80;;;9.30
68440;BMP180;55421;51.600;5.718;2023-04-24T05:59:15;164237.00;;;9.30
68440;BMP180;55421;51.600;5.718;2023-04-24T06:01:41;164227.41;;;9.20
68440;BMP180;55421;51.600;5.718;2023-04-24T06:04:08;164228.20;;;9.22
68440;BMP180;55421;51.600;5.718;2023-04-24T06:06:35;164221.41;;;9.20
68440;BMP180;55421;51.600;5.718;2023-04-24T06:09:02;164217.41;;;9.20
68440;BMP180;55421;51.600;5.718;2023-04-24T06:11:29;164222.59;;;9.20
68440;BMP180;55421;51.600;5.718;2023-04-24T06:13:55;164204.59;;;9.20
68440;BMP180;55421;51.600;5.718;2023-04-24T06:16:22;164182.20;;;9.18
68440;BMP180;55421;51.600;5.718;2023-04-24T06:18:48;164157.80;;;9.10
68440;BMP180;55421;51.600;5.718;2023-04-24T06:21:16;164134.20;;;9.00
68440;BMP180;55421;51.600;5.718;2023-04-24T06:23:43;164112.41;;;9.00
68440;BMP180;55421;51.600;5.718;2023-04-24T06:26:09;164095.59;;;8.98
68440;BMP180;55421;51.600;5.718;2023-04-24T06:28:36;164093.20;;;8.90
68440;BMP180;55421;51.600;5.718;2023-04-24T06:31:02;164104.80;;;9.00
68440;BMP180;55421;51.600;5.718;2023-04-24T06:33:29;164104.00;;;9.00
68440;BMP180;55421;51.600;5.718;2023-04-24T06:35:55;164105.59;;;8.98
68440;BMP180;55421;51.600;5.718;2023-04-24T06:38:22;164109.59;;;9.00
68440;BMP180;55421;51.600;5.718;2023-04-24T06:40:48;164102.80;;;9.00
68440;BMP180;55421;51.600;5.718;2023-04-24T06:43:15;164102.41;;;9.00
68440;BMP180;55421;51.600;5.718;2023-04-24T06:45:41;164102.80;;;8.98
68440;BMP180;55421;51.600;5.718;2023-04-24T06:48:10;164102.41;;;8.98
68440;BMP180;55421;51.600;5.718;2023-04-24T06:50:36;164101.59;;;9.00
68440;BMP180;55421;51.600;5.718;2023-04-24T06:53:03;164098.80;;;9.00
68440;BMP180;55421;51.600;5.718;2023-04-24T06:55:29;164102.00;;;8.94
68440;BMP180;55421;51.600;5.718;2023-04-24T06:57:56;164098.00;;;8.94
68440;BMP180;55421;51.600;5.718;2023-04-24T07:00:22;164099.20;;;8.94
68440;BMP180;55421;51.600;5.718;2023-04-24T07:02:50;164087.20;;;8.90
68440;BMP180;55421;51.600;5.718;2023-04-24T07:05:16;164084.00;;;8.90
68440;BMP180;55421;51.600;5.718;2023-04-24T07:07:47;164089.59;;;8.90
68440;BMP180;55421;51.600;5.718;2023-04-24T07:10:13;164097.20;;;8.94
68440;BMP180;55421;51.600;5.718;2023-04-24T07:12:41;164098.41;;;9.00
68440;BMP180;55421;51.600;5.718;2023-04-24T07:15:08;164108.41;;;9.00
68440;BMP180;55421;51.600;5.718;2023-04-24T07:17:35;164116.41;;;9.00
68440;BMP180;55421;51.600;5.718;2023-04-24T07:20:02;164124.20;;;9.00
68440;BMP180;55421;51.600;5.718;2023-04-24T07:22:28;164130.80;;;9.00
68440;BMP180;55421;51.600;5.718;2023-04-24T07:24:55;164132.00;;;9.00
68440;BMP180;55421;51.600;5.718;2023-04-24T07:27:21;164131.80;;;9.00
68440;BMP180;55421;51.600;5.718;2023-04-24T07:29:48;164124.00;;;9.00
68440;BMP180;55421;51.600;5.718;2023-04-24T07:32:14;164115.20;;;9.00
68440;BMP180;55421;51.600;5.718;2023-04-24T07:34:40;164098.41;;;9.00
68440;BMP180;55421;51.600;5.718;2023-04-24T07:37:07;164085.20;;;8.90
68440;BMP180;55421;51.600;5.718;2023-04-24T07:39:33;164068.80;;;8.90
68440;BMP180;55421;51.600;5.718;2023-04-24T07:42:00;164056.00;;;8.82
68440;BMP180;55421;51.600;5.718;2023-04-24T07:44:27;164032.41;;;8.80
68440;BMP180;55421;51.600;5.718;2023-04-24T07:46:55;164028.20;;;8.80
68440;BMP180;55421;51.600;5.718;2023-04-24T07:49:22;163999.41;;;8.70
68440;BMP180;55421;51.600;5.718;2023-04-24T07:51:49;163984.20;;;8.70
68440;BMP180;55421;51.600;5.718;2023-04-24T07:54:16;163989.00;;;8.70
68440;BMP180;55421;51.600;5.718;2023-04-24T07:56:43;163985.41;;;8.70
68440;BMP180;55421;51.600;5.718;2023-04-24T07:59:10;163978.59;;;8.70
68440;BMP180;55421;51.600;5.718;2023-04-24T08:01:37;163959.41;;;8.60
68440;BMP180;55421;51.600;5.718;2023-04-24T08:04:04;163948.20;;;8.60
68440;BMP180;55421;51.600;5.718;2023-04-24T08:06:31;163948.59;;;8.60
68440;BMP180;55421;51.600;5.718;2023-04-24T08:08:59;163963.00;;;8.60
68440;BMP180;55421;51.600;5.718;2023-04-24T08:11:26;163979.80;;;8.70
68440;BMP180;55421;51.600;5.718;2023-04-24T08:13:53;163984.20;;;8.70
68440;BMP180;55421;51.600;5.718;2023-04-24T08:16:20;163984.20;;;8.70
68440;BMP180;55421;51.600;5.718;2023-04-24T08:18:47;163994.20;;;8.70
68440;BMP180;55421;51.600;5.718;2023-04-24T08:21:13;163999.00;;;8.70
68440;BMP180;55421;51.600;5.718;2023-04-24T08:23:43;164015.00;;;8.74
68440;BMP180;55421;51.600;5.718;2023-04-24T08:26:10;164023.00;;;8.80
68440;BMP180;55421;51.600;5.718;2023-04-24T08:28:38;164028.00;;;8.80
68440;BMP180;55421;51.600;5.718;2023-04-24T08:31:04;164023.41;;;8.80
68440;BMP180;55421;51.600;5.718;2023-04-24T08:33:31;164020.00;;;8.80
68440;BMP180;55421;51.600;5.718;2023-04-24T08:36:05;164031.20;;;8.80
68440;BMP180;55421;51.600;5.718;2023-04-24T08:38:33;164045.59;;;8.80
68440;BMP180;55421;51.600;5.718;2023-04-24T08:41:01;164062.80;;;8.90
68440;BMP180;55421;51.600;5.718;2023-04-24T08:43:28;164062.00;;;8.90
68440;BMP180;55421;51.600;5.718;2023-04-24T08:45:56;164054.00;;;8.84
68440;BMP180;55421;51.600;5.718;2023-04-24T08:48:23;164042.00;;;8.80
68440;BMP180;55421;51.600;5.718;2023-04-24T08:50:51;164044.41;;;8.80
68440;BMP180;55421;51.600;5.718;2023-04-24T08:53:18;164062.80;;;8.90
68440;BMP180;55421;51.600;5.718;2023-04-24T08:55:48;164071.20;;;8.90
68440;BMP180;55421;51.600;5.718;2023-04-24T08:58:16;164098.41;;;8.98
68440;BMP180;55421;51.600;5.718;2023-04-24T09:00:44;164115.20;;;9.00
68440;BMP180;55421;51.600;5.718;2023-04-24T09:03:15;164125.41;;;9.00
68440;BMP180;55421;51.600;5.718;2023-04-24T09:05:46;164134.59;;;9.00
68440;BMP180;55421;51.600;5.718;2023-04-24T09:08:13;164132.59;;;9.00
68440;BMP180;55421;51.600;5.718;2023-04-24T09:10:41;164150.59;;;9.10
68440;BMP180;55421;51.600;5.718;2023-04-24T09:13:07;164143.41;;;9.10
68440;BMP180;55421;51.600;5.718;2023-04-24T09:15:38;164141.80;;;9.10
68440;BMP180;55421;51.600;5.718;2023-04-24T09:18:05;164139.80;;;9.06
68440;BMP180;55421;51.600;5.718;2023-04-24T09:20:32;164145.80;;;9.10
68440;BMP180;55421;51.600;5.718;2023-04-24T09:22:59;164150.59;;;9.10
68440;BMP180;55421;51.600;5.718;2023-04-24T09:25:32;164154.20;;;9.10
68440;BMP180;55421;51.600;5.718;2023-04-24T09:28:04;164153.00;;;9.10
68440;BMP180;55421;51.600;5.718;2023-04-24T09:30:32;164172.59;;;9.10
68440;BMP180;55421;51.600;5.718;2023-04-24T09:33:13;164191.41;;;9.20
68440;BMP180;55421;51.600;5.718;2023-04-24T09:35:51;164238.20;;;9.30
68440;BMP180;55421;51.600;5.718;2023-04-24T09:38:18;164278.80;;;9.38
68440;BMP180;55421;51.600;5.718;2023-04-24T09:40:46;164327.59;;;9.50
68440;BMP180;55421;51.600;5.718;2023-04-24T09:43:13;164360.00;;;9.56
68440;BMP180;55421;51.600;5.718;2023-04-24T09:45:39;164401.41;;;9.70
68440;BMP180;55421;51.600;5.718;2023-04-24T09:48:10;164430.59;;;9.70
68440;BMP180;55421;51.600;5.718;2023-04-24T09:50:36;164471.00;;;9.80
68440;BMP180;55421;51.600;5.718;2023-04-24T09:53:05;164504.20;;;9.90
68440;BMP180;55421;51.600;5.718;2023-04-24T09:55:40;164547.59;;;10.00
68440;BMP180;55421;51.600;5.718;2023-04-24T09:58:10;164580.41;;;10.10
68440;BMP180;55421;51.600;5.718;2023-04-24T10:00:37;164573.59;;;10.10
68440;BMP180;55421;51.600;5.718;2023-04-24T10:03:05;164568.41;;;10.04
68440;BMP180;55421;51.600;5.718;2023-04-24T10:05:35;164547.59;;;10.00
68440;BMP180;55421;51.600;5.718;2023-04-24T10:08:12;164531.20;;;9.96
68440;BMP180;55421;51.600;5.718;2023-04-24T10:10:45;164497.80;;;9.90
68440;BMP180;55421;51.600;5.718;2023-04-24T10:13:14;164454.20;;;9.80
68440;BMP180;55421;51.600;5.718;2023-04-24T10:15:44;164407.80;;;9.70
68440;BMP180;55421;51.600;5.718;2023-04-24T10:18:11;164348.41;;;9.50
68440;BMP180;55421;51.600;5.718;2023-04-24T10:20:40;164306.80;;;9.40
68440;BMP180;55421;51.600;5.718;2023-04-24T10:23:07;164272.00;;;9.36
68440;BMP180;55421;51.600;5.718;2023-04-24T10:25:35;164255.80;;;9.30
68440;BMP180;55421;51.600;5.718;2023-04-24T10:28:03;164266.00;;;9.34
68440;BMP180;55421;51.600;5.718;2023-04-24T10:30:33;164308.80;;;9.40
68440;BMP180;55421;51.600;5.718;2023-04-24T10:33:02;164352.80;;;9.52
68440;BMP180;55421;51.600;5.718;2023-04-24T10:35:40;164397.80;;;9.62
68440;BMP180;55421;51.600;5.718;2023-04-24T10:38:13;164421.00;;;9.70
68440;BMP180;55421;51.600;5.718;2023-04-24T10:40:42;164392.00;;;9.70
68440;BMP180;55421;51.600;5.718;2023-04-24T10:43:10;164380.00;;;9.80
68440;BMP180;55421;51.600;5.718;2023-04-24T10:45:39;163710.59;;;9.80
68440;BMP180;55421;51.600;5.718;2023-04-24T10:48:09;162368.41;;;9.80
68440;BMP180;55421;51.600;5.718;2023-04-24T10:50:51;163282.80;;;9.80
68440;BMP180;55421;51.600;5.718;2023-04-24T10:53:23;159094.00;;;9.72
68440;BMP180;55421;51.600;5.718;2023-04-24T10:55:57;154333.41;;;9.70
68440;BMP180;55421;51.600;5.718;2023-04-24T10:58:41;142169.59;;;9.60
68440;BMP180;55421;51.600;5.718;2023-04-24T11:01:29;138964.00;;;9.50
68440;BMP180;55421;51.600;5.718;2023-04-24T11:03:59;140854.00;;;9.50
68440;BMP180;55421;51.600;5.718;2023-04-24T11:06:31;139695.00;;;9.48
68440;BMP180;55421;51.600;5.718;2023-04-24T11:09:10;136230.20;;;9.50
68440;BMP180;55421;51.600;5.718;2023-04-24T11:11:45;128339.80;;;9.60
68440;BMP180;55421;51.600;5.718;2023-04-24T11:14:15;126037.60;;;9.76
68440;BMP180;55421;51.600;5.718;2023-04-24T11:16:52;124471.60;;;9.86
68440;BMP180;55421;51.600;5.718;2023-04-24T11:19:25;127241.40;;;10.00
68440;BMP180;55421;51.600;5.718;2023-04-24T11:22:01;122310.80;;;10.02
68440;BMP180;55421;51.600;5.718;2023-04-24T11:24:48;119272.60;;;10.10
68440;BMP180;55421;51.600;5.718;2023-04-24T11:27:18;117562.00;;;10.10
68440;BMP180;55421;51.600;5.718;2023-04-24T11:30:02;114179.60;;;10.08
68440;BMP180;55421;51.600;5.718;2023-04-24T11:35:19;118187.20;;;10.08
68440;BMP180;55421;51.600;5.718;2023-04-24T11:37:52;105477.40;;;10.10
68440;BMP180;55421;51.600;5.718;2023-04-24T11:40:21;108254.80;;;10.20
68440;BMP180;55421;51.600;5.718;2023-04-24T11:42:53;110525.60;;;10.30
68440;BMP180;55421;51.600;5.718;2023-04-24T11:45:28;114379.00;;;10.40
68440;BMP180;55421;51.600;5.718;2023-04-24T11:47:56;110469.00;;;10.50
68440;BMP180;55421;51.600;5.718;2023-04-24T11:50:25;117744.00;;;10.50
68440;BMP180;55421;51.600;5.718;2023-04-24T11:52:53;117726.20;;;10.50
68440;BMP180;55421;51.600;5.718;2023-04-24T11:57:52;116343.60;;;10.40
68440;BMP180;55421;51.600;5.718;2023-04-24T12:00:26;112528.20;;;10.40
68440;BMP180;55421;51.600;5.718;2023-04-24T12:03:08;114238.80;;;10.36
68440;BMP180;55421;51.600;5.718;2023-04-24T12:05:35;112230.80;;;10.30
68440;BMP180;55421;51.600;5.718;2023-04-24T12:08:02;113378.60;;;10.20
68440;BMP180;55421;51.600;5.718;2023-04-24T12:10:30;115459.80;;;10.14
68440;BMP180;55421;51.600;5.718;2023-04-24T12:12:58;114154.60;;;10.10
68440;BMP180;55421;51.600;5.718;2023-04-24T12:15:27;113406.60;;;10.00
68440;BMP180;55421;51.600;5.718;2023-04-24T12:17:55;116218.40;;;10.00
68440;BMP180;55421;51.600;5.718;2023-04-24T12:20:29;114662.40;;;9.90
68440;BMP180;55421;51.600;5.718;2023-04-24T12:22:57;115843.20;;;9.90
68440;BMP180;55421;51.600;5.718;2023-04-24T12:25:30;118832.60;;;9.90
68440;BMP180;55421;51.600;5.718;2023-04-24T12:30:39;123461.40;;;10.12
68440;BMP180;55421;51.600;5.718;2023-04-24T12:33:05;123605.20;;;10.28
68440;BMP180;55421;51.600;5.718;2023-04-24T12:35:33;120697.60;;;10.40
68440;BMP180;55421;51.600;5.718;2023-04-24T12:38:13;119761.80;;;10.50
68440;BMP180;55421;51.600;5.718;2023-04-24T12:40:42;117401.00;;;10.58
68440;BMP180;55421;51.600;5.718;2023-04-24T12:43:19;117561.60;;;10.60
68440;BMP180;55421;51.600;5.718;2023-04-24T12:45:48;116184.00;;;10.70
68440;BMP180;55421;51.600;5.718;2023-04-24T12:48:15;115458.20;;;10.60
68440;BMP180;55421;51.600;5.718;2023-04-24T12:50:43;119185.00;;;10.60
68440;BMP180;55421;51.600;5.718;2023-04-24T12:53:10;119593.40;;;10.60
68440;BMP180;55421;51.600;5.718;2023-04-24T12:55:37;119405.80;;;10.58
68440;BMP180;55421;51.600;5.718;2023-04-24T12:58:03;119065.20;;;10.50
68440;BMP180;55421;51.600;5.718;2023-04-24T13:00:30;119528.00;;;10.40
68440;BMP180;55421;51.600;5.718;2023-04-24T13:02:56;122158.80;;;10.40
68440;BMP180;55421;51.600;5.718;2023-04-24T13:05:23;117002.80;;;10.30
68440;BMP180;55421;51.600;5.718;2023-04-24T13:07:49;116094.00;;;10.28
68440;BMP180;55421;51.600;5.718;2023-04-24T13:10:16;112137.20;;;10.20
68440;BMP180;55421;51.600;5.718;2023-04-24T13:12:42;112434.60;;;10.10
68440;BMP180;55421;51.600;5.718;2023-04-24T13:15:12;110731.80;;;9.90
68440;BMP180;55421;51.600;5.718;2023-04-24T13:17:38;112010.40;;;9.80
68440;BMP180;55421;51.600;5.718;2023-04-24T13:20:05;111931.60;;;9.70
68440;BMP180;55421;51.600;5.718;2023-04-24T13:22:32;111796.20;;;9.62
68440;BMP180;55421;51.600;5.718;2023-04-24T13:24:59;110207.40;;;9.60
68440;BMP180;55421;51.600;5.718;2023-04-24T13:27:25;108732.20;;;9.60
68440;BMP180;55421;51.600;5.718;2023-04-24T13:29:52;108080.60;;;9.70
68440;BMP180;55421;51.600;5.718;2023-04-24T13:32:18;106322.60;;;9.72
68440;BMP180;55421;51.600;5.718;2023-04-24T13:34:45;109950.80;;;9.90
68440;BMP180;55421;51.600;5.718;2023-04-24T13:37:12;109778.80;;;10.16
68440;BMP180;55421;51.600;5.718;2023-04-24T13:39:38;104957.80;;;10.30
68440;BMP180;55421;51.600;5.718;2023-04-24T13:42:05;103475.00;;;10.30
68440;BMP180;55421;51.600;5.718;2023-04-24T13:44:32;103756.20;;;10.50
68440;BMP180;55421;51.600;5.718;2023-04-24T13:46:59;99890.40;;;10.50
68440;BMP180;55421;51.600;5.718;2023-04-24T13:49:26;95049.00;;;10.50
68440;BMP180;55421;51.600;5.718;2023-04-24T13:51:55;93860.20;;;10.60
68440;BMP180;55421;51.600;5.718;2023-04-24T13:54:21;86974.00;;;10.62
68440;BMP180;55421;51.600;5.718;2023-04-24T13:56:50;88779.20;;;10.80
68440;BMP180;55421;51.600;5.718;2023-04-24T13:59:17;88151.80;;;10.90
68440;BMP180;55421;51.600;5.718;2023-04-24T14:01:43;86022.60;;;10.90
68440;BMP180;55421;51.600;5.718;2023-04-24T14:04:11;86007.40;;;10.98
68440;BMP180;55421;51.600;5.718;2023-04-24T14:06:38;87353.80;;;11.00
68440;BMP180;55421;51.600;5.718;2023-04-24T14:09:05;87634.20;;;11.10
68440;BMP180;55421;51.600;5.718;2023-04-24T14:11:34;83859.20;;;11.20
68440;BMP180;55421;51.600;5.718;2023-04-24T14:14:01;79398.80;;;11.20
68440;BMP180;55421;51.600;5.718;2023-04-24T14:16:28;76287.60;;;11.10
68440;BMP180;55421;51.600;5.718;2023-04-24T14:18:55;77910.80;;;11.00